createdAt,value
2022-09-10T00:00:17.795Z,17.60
2022-09-10T00:10:19.934Z,17.50
2022-09-10T00:20:21.544Z,17.50
2022-09-10T00:30:23.144Z,17.40
2022-09-10T00:40:25.465Z,17.40
2022-09-10T00:50:30.527Z,17.40
2022-09-10T01:00:32.674Z,17.50
2022-09-10T01:11:01.459Z,17.50
2022-09-10T01:21:06.779Z,17.50
2022-09-10T01:31:18.555Z,17.40
2022-09-10T01:41:24.016Z,17.30
2022-09-10T01:51:34.845Z,17.30
2022-09-10T02:01:45.764Z,17.30
2022-09-10T02:11:50.418Z,17.20
2022-09-10T02:21:53.815Z,17.20
2022-09-10T02:31:55.555Z,17.10
2022-09-10T02:41:58.652Z,17.10
2022-09-10T02:52:02.798Z,17.10
2022-09-10T03:02:04.519Z,17.10
2022-09-10T03:12:06.467Z,17.10
2022-09-10T03:22:08.175Z,17.10
2022-09-10T03:32:09.770Z,17.20
2022-09-10T03:42:12.219Z,17.20
2022-09-10T03:52:13.848Z,17.10
2022-09-10T04:02:16.550Z,17.00
2022-09-10T04:12:18.215Z,17.10
2022-09-10T04:22:19.836Z,17.10
2022-09-10T04:32:21.442Z,17.10
2022-09-10T04:42:23.850Z,17.20
2022-09-10T04:52:25.474Z,17.20
2022-09-10T05:02:27.099Z,17.20
2022-09-10T05:12:28.718Z,17.30
2022-09-10T05:22:37.220Z,17.30
2022-09-10T05:32:41.879Z,17.30
2022-09-10T05:42:43.512Z,17.30
2022-09-10T05:52:45.542Z,17.40
2022-09-10T06:02:47.997Z,17.30
2022-09-10T06:12:51.968Z,17.40
2022-09-10T06:22:54.780Z,17.50
2022-09-10T06:32:56.471Z,17.60
2022-09-10T06:43:02.133Z,17.70
2022-09-10T06:53:03.928Z,17.70
2022-09-10T07:03:05.638Z,17.70
2022-09-10T07:13:07.798Z,17.70
2022-09-10T07:23:14.172Z,18.30
2022-09-10T07:33:15.963Z,18.00
2022-09-10T07:43:17.683Z,17.90
2022-09-10T07:53:19.564Z,17.90
2022-09-10T08:03:22.251Z,18.00
2022-09-10T08:13:23.923Z,18.20
2022-09-10T08:23:25.504Z,18.30
2022-09-10T08:33:28.691Z,18.20
2022-09-10T08:43:50.529Z,18.10
2022-09-10T08:53:59.726Z,17.90
2022-09-10T09:04:06.427Z,17.80
2022-09-10T09:14:18.263Z,17.70
2022-09-10T09:24:39.601Z,17.80
2022-09-10T09:34:50.475Z,17.70
2022-09-10T09:45:02.136Z,18.00
2022-09-10T09:55:14.639Z,18.20
2022-09-10T10:05:25.245Z,18.50
2022-09-10T10:15:41.886Z,18.70
2022-09-10T10:25:47.904Z,18.80
2022-09-10T10:36:02.480Z,19.00
2022-09-10T10:46:20.196Z,19.10
2022-09-10T10:56:38.859Z,19.10
2022-09-10T11:06:46.789Z,19.10
2022-09-10T11:16:58.861Z,19.20
2022-09-10T11:27:13.060Z,19.40
2022-09-10T11:37:27.200Z,19.60
2022-09-10T11:47:38.732Z,19.70
2022-09-10T11:58:04.209Z,19.90
2022-09-10T12:08:29.412Z,20.00
2022-09-10T12:18:42.977Z,19.80
2022-09-10T12:28:53.791Z,19.70
2022-09-10T12:39:20.074Z,19.90
2022-09-10T12:49:22.035Z,19.80
2022-09-10T12:59:42.462Z,20.10
2022-09-10T13:09:44.988Z,20.20
2022-09-10T13:19:48.901Z,19.50
2022-09-10T13:30:18.703Z,18.60
2022-09-10T13:40:39.035Z,18.70
2022-09-10T13:50:47.273Z,18.90
2022-09-10T14:00:56.658Z,19.00
2022-09-10T14:11:08.011Z,19.20
2022-09-10T14:21:12.698Z,19.30
2022-09-10T14:31:30.534Z,19.40
2022-09-10T14:41:35.336Z,19.60
2022-09-10T14:51:36.927Z,19.70
2022-09-10T15:01:41.474Z,20.10
2022-09-10T15:12:05.080Z,20.10
2022-09-10T15:22:07.567Z,20.10
2022-09-10T15:32:10.446Z,20.20
2022-09-10T15:42:12.299Z,19.90
2022-09-10T15:52:13.984Z,19.80
2022-09-10T16:02:15.738Z,19.80
2022-09-10T16:12:17.505Z,19.80
2022-09-10T16:22:20.816Z,19.90
2022-09-10T16:32:22.535Z,19.90
2022-09-10T16:42:25.050Z,19.90
2022-09-10T16:52:26.943Z,19.80
2022-09-10T17:02:30.653Z,19.70
2022-09-10T17:12:32.358Z,19.60
2022-09-10T17:22:35.233Z,19.50
2022-09-10T17:32:37.060Z,19.40
2022-09-10T17:42:39.142Z,19.30
2022-09-10T17:52:45.770Z,19.10
2022-09-10T18:02:47.624Z,18.40
2022-09-10T18:12:49.269Z,18.10
2022-09-10T18:22:51.004Z,17.80
2022-09-10T18:32:52.645Z,17.60
2022-09-10T18:42:54.226Z,17.50
2022-09-10T18:52:55.826Z,17.60
2022-09-10T19:02:57.417Z,17.50
2022-09-10T19:12:59.107Z,17.50
2022-09-10T19:23:00.689Z,17.50
2022-09-10T19:33:02.283Z,17.50
2022-09-10T19:43:04.846Z,17.50
2022-09-10T19:53:06.466Z,17.40
2022-09-10T20:03:09.811Z,17.40
2022-09-10T20:13:11.969Z,17.40
2022-09-10T20:23:13.565Z,17.50
2022-09-10T20:33:16.575Z,17.50
2022-09-10T20:43:18.207Z,17.50
2022-09-10T20:53:19.941Z,17.50
2022-09-10T21:03:21.618Z,17.50
2022-09-10T21:13:25.209Z,17.50
2022-09-10T21:23:26.877Z,17.60
2022-09-10T21:33:29.283Z,17.60
2022-09-10T21:43:32.727Z,17.60
2022-09-10T21:53:35.409Z,17.60
2022-09-10T22:03:37.048Z,17.50
2022-09-10T22:13:38.972Z,17.40
2022-09-10T22:23:40.901Z,17.50
2022-09-10T22:33:44.088Z,17.40
2022-09-10T22:43:45.930Z,17.50
2022-09-10T22:53:48.091Z,17.50
2022-09-10T23:03:50.647Z,17.50
2022-09-10T23:14:04.773Z,17.60
2022-09-10T23:24:09.638Z,17.60
2022-09-10T23:34:14.303Z,17.50
2022-09-10T23:44:16.900Z,17.50
2022-09-10T23:54:18.539Z,17.50
